sensor_id;sensor_type;location;lat;lon;timestamp;P1;durP1;ratioP1;P2;durP2;ratioP2
48215;SDS011;34005;48.844;10.098;2024-02-26T00:00:44;6.78;;;3.83;;
48215;SDS011;34005;48.844;10.098;2024-02-26T00:03:12;5.22;;;3.63;;
48215;SDS011;34005;48.844;10.098;2024-02-26T00:05:41;5.18;;;3.47;;
48215;SDS011;34005;48.844;10.098;2024-02-26T00:08:09;4.97;;;3.13;;
48215;SDS011;34005;48.844;10.098;2024-02-26T00:10:37;3.55;;;2.80;;
48215;SDS011;34005;48.844;10.098;2024-02-26T00:13:04;2.97;;;2.47;;
48215;SDS011;34005;48.844;10.098;2024-02-26T00:15:32;5.32;;;3.75;;
48215;SDS011;34005;48.844;10.098;2024-02-26T00:18:01;9.70;;;4.60;;
48215;SDS011;34005;48.844;10.098;2024-02-26T00:20:29;6.75;;;4.15;;
48215;SDS011;34005;48.844;10.098;2024-02-26T00:22:58;6.20;;;3.47;;
48215;SDS011;34005;48.844;10.098;2024-02-26T00:25:25;6.53;;;3.90;;
48215;SDS011;34005;48.844;10.098;2024-02-26T00:27:53;6.72;;;4.15;;
48215;SDS011;34005;48.844;10.098;2024-02-26T00:30:20;7.40;;;3.88;;
48215;SDS011;34005;48.844;10.098;2024-02-26T00:32:48;5.35;;;3.72;;
48215;SDS011;34005;48.844;10.098;2024-02-26T00:35:16;7.00;;;4.20;;
48215;SDS011;34005;48.844;10.098;2024-02-26T00:37:46;6.40;;;4.25;;
48215;SDS011;34005;48.844;10.098;2024-02-26T00:40:15;8.15;;;5.13;;
48215;SDS011;34005;48.844;10.098;2024-02-26T00:42:43;5.32;;;3.92;;
48215;SDS011;34005;48.844;10.098;2024-02-26T00:45:12;8.00;;;4.60;;
48215;SDS011;34005;48.844;10.098;2024-02-26T00:47:40;6.55;;;4.68;;
48215;SDS011;34005;48.844;10.098;2024-02-26T00:50:09;7.07;;;4.57;;
48215;SDS011;34005;48.844;10.098;2024-02-26T00:52:37;6.07;;;3.90;;
48215;SDS011;34005;48.844;10.098;2024-02-26T00:55:05;5.82;;;3.83;;
48215;SDS011;34005;48.844;10.098;2024-02-26T00:57:35;5.85;;;3.97;;
48215;SDS011;34005;48.844;10.098;2024-02-26T01:00:02;6.03;;;4.30;;
48215;SDS011;34005;48.844;10.098;2024-02-26T01:02:31;6.72;;;4.40;;
48215;SDS011;34005;48.844;10.098;2024-02-26T01:04:58;5.38;;;3.75;;
48215;SDS011;34005;48.844;10.098;2024-02-26T01:07:26;7.88;;;4.85;;
48215;SDS011;34005;48.844;10.098;2024-02-26T01:09:54;6.70;;;4.32;;
48215;SDS011;34005;48.844;10.098;2024-02-26T01:12:21;7.00;;;4.35;;
48215;SDS011;34005;48.844;10.098;2024-02-26T01:14:50;6.22;;;4.47;;
48215;SDS011;34005;48.844;10.098;2024-02-26T01:17:18;8.77;;;4.68;;
48215;SDS011;34005;48.844;10.098;2024-02-26T01:19:45;7.10;;;4.38;;
48215;SDS011;34005;48.844;10.098;2024-02-26T01:22:13;6.85;;;4.45;;
48215;SDS011;34005;48.844;10.098;2024-02-26T01:24:41;6.57;;;4.30;;
48215;SDS011;34005;48.844;10.098;2024-02-26T01:27:08;5.18;;;3.72;;
48215;SDS011;34005;48.844;10.098;2024-02-26T01:29:36;7.25;;;4.45;;
48215;SDS011;34005;48.844;10.098;2024-02-26T01:32:05;4.18;;;3.47;;
48215;SDS011;34005;48.844;10.098;2024-02-26T01:34:33;9.13;;;4.18;;
48215;SDS011;34005;48.844;10.098;2024-02-26T01:37:03;6.03;;;4.53;;
48215;SDS011;34005;48.844;10.098;2024-02-26T01:39:30;5.90;;;4.10;;
48215;SDS011;34005;48.844;10.098;2024-02-26T01:41:58;6.18;;;3.97;;
48215;SDS011;34005;48.844;10.098;2024-02-26T01:44:26;6.65;;;5.00;;
48215;SDS011;34005;48.844;10.098;2024-02-26T01:46:54;7.03;;;3.92;;
48215;SDS011;34005;48.844;10.098;2024-02-26T01:49:23;6.28;;;4.00;;
48215;SDS011;34005;48.844;10.098;2024-02-26T01:51:51;6.43;;;4.50;;
48215;SDS011;34005;48.844;10.098;2024-02-26T01:54:19;5.55;;;4.10;;
48215;SDS011;34005;48.844;10.098;2024-02-26T01:56:47;5.35;;;4.07;;
48215;SDS011;34005;48.844;10.098;2024-02-26T01:59:15;6.43;;;4.32;;
48215;SDS011;34005;48.844;10.098;2024-02-26T02:01:44;5.97;;;4.00;;
48215;SDS011;34005;48.844;10.098;2024-02-26T02:04:15;6.07;;;3.70;;
48215;SDS011;34005;48.844;10.098;2024-02-26T02:06:44;6.50;;;4.10;;
48215;SDS011;34005;48.844;10.098;2024-02-26T02:09:13;5.07;;;3.70;;
48215;SDS011;34005;48.844;10.098;2024-02-26T02:11:40;6.15;;;3.78;;
48215;SDS011;34005;48.844;10.098;2024-02-26T02:14:08;11.60;;;3.83;;
48215;SDS011;34005;48.844;10.098;2024-02-26T02:16:36;7.13;;;4.32;;
48215;SDS011;34005;48.844;10.098;2024-02-26T02:19:03;3.78;;;3.38;;
48215;SDS011;34005;48.844;10.098;2024-02-26T02:21:32;5.25;;;4.10;;
48215;SDS011;34005;48.844;10.098;2024-02-26T02:24:00;5.85;;;4.00;;
48215;SDS011;34005;48.844;10.098;2024-02-26T02:26:27;5.38;;;4.03;;
48215;SDS011;34005;48.844;10.098;2024-02-26T02:28:55;5.53;;;3.70;;
48215;SDS011;34005;48.844;10.098;2024-02-26T02:31:23;5.45;;;3.92;;
48215;SDS011;34005;48.844;10.098;2024-02-26T02:33:51;6.43;;;4.07;;
48215;SDS011;34005;48.844;10.098;2024-02-26T02:36:19;6.30;;;3.97;;
48215;SDS011;34005;48.844;10.098;2024-02-26T02:38:51;4.97;;;3.60;;
48215;SDS011;34005;48.844;10.098;2024-02-26T02:41:19;5.60;;;4.15;;
48215;SDS011;34005;48.844;10.098;2024-02-26T02:43:47;5.60;;;3.78;;
48215;SDS011;34005;48.844;10.098;2024-02-26T02:46:15;6.32;;;3.92;;
48215;SDS011;34005;48.844;10.098;2024-02-26T02:48:43;6.78;;;3.92;;
48215;SDS011;34005;48.844;10.098;2024-02-26T02:51:11;4.95;;;3.88;;
48215;SDS011;34005;48.844;10.098;2024-02-26T02:53:38;5.30;;;3.92;;
48215;SDS011;34005;48.844;10.098;2024-02-26T02:56:07;5.70;;;4.03;;
48215;SDS011;34005;48.844;10.098;2024-02-26T02:58:35;4.63;;;3.88;;
48215;SDS011;34005;48.844;10.098;2024-02-26T03:01:03;6.43;;;4.30;;
48215;SDS011;34005;48.844;10.098;2024-02-26T03:03:30;6.35;;;4.47;;
48215;SDS011;34005;48.844;10.098;2024-02-26T03:05:58;4.18;;;3.65;;
48215;SDS011;34005;48.844;10.098;2024-02-26T03:08:26;6.93;;;4.20;;
48215;SDS011;34005;48.844;10.098;2024-02-26T03:10:53;6.20;;;4.60;;
48215;SDS011;34005;48.844;10.098;2024-02-26T03:13:22;5.40;;;4.35;;
48215;SDS011;34005;48.844;10.098;2024-02-26T03:15:50;10.85;;;5.40;;
48215;SDS011;34005;48.844;10.098;2024-02-26T03:18:17;7.10;;;4.63;;
48215;SDS011;34005;48.844;10.098;2024-02-26T03:20:45;6.43;;;4.45;;
48215;SDS011;34005;48.844;10.098;2024-02-26T03:23:13;7.32;;;4.18;;
48215;SDS011;34005;48.844;10.098;2024-02-26T03:25:42;7.80;;;5.35;;
48215;SDS011;34005;48.844;10.098;2024-02-26T03:28:12;8.30;;;5.03;;
48215;SDS011;34005;48.844;10.098;2024-02-26T03:30:41;5.07;;;3.92;;
48215;SDS011;34005;48.844;10.098;2024-02-26T03:33:08;6.45;;;4.70;;
48215;SDS011;34005;48.844;10.098;2024-02-26T03:35:36;8.75;;;4.90;;
48215;SDS011;34005;48.844;10.098;2024-02-26T03:38:04;6.65;;;4.80;;
48215;SDS011;34005;48.844;10.098;2024-02-26T03:40:31;8.75;;;4.78;;
48215;SDS011;34005;48.844;10.098;2024-02-26T03:42:59;6.95;;;4.35;;
48215;SDS011;34005;48.844;10.098;2024-02-26T03:45:26;6.38;;;3.83;;
48215;SDS011;34005;48.844;10.098;2024-02-26T03:47:55;6.55;;;4.55;;
48215;SDS011;34005;48.844;10.098;2024-02-26T03:50:23;6.55;;;4.80;;
48215;SDS011;34005;48.844;10.098;2024-02-26T03:52:51;7.57;;;4.93;;
48215;SDS011;34005;48.844;10.098;2024-02-26T03:55:18;7.32;;;5.13;;
48215;SDS011;34005;48.844;10.098;2024-02-26T03:57:51;7.93;;;5.13;;
48215;SDS011;34005;48.844;10.098;2024-02-26T04:00:19;7.72;;;5.22;;
48215;SDS011;34005;48.844;10.098;2024-02-26T04:02:48;7.07;;;4.78;;
48215;SDS011;34005;48.844;10.098;2024-02-26T04:05:17;5.30;;;4.15;;
48215;SDS011;34005;48.844;10.098;2024-02-26T04:07:45;6.97;;;5.35;;
48215;SDS011;34005;48.844;10.098;2024-02-26T04:10:12;8.13;;;5.68;;
48215;SDS011;34005;48.844;10.098;2024-02-26T04:12:41;7.88;;;5.60;;
48215;SDS011;34005;48.844;10.098;2024-02-26T04:15:10;6.95;;;4.78;;
48215;SDS011;34005;48.844;10.098;2024-02-26T04:17:38;6.15;;;4.22;;
48215;SDS011;34005;48.844;10.098;2024-02-26T04:20:06;6.88;;;4.80;;
48215;SDS011;34005;48.844;10.098;2024-02-26T04:22:37;6.60;;;4.47;;
48215;SDS011;34005;48.844;10.098;2024-02-26T04:25:05;6.05;;;4.13;;
48215;SDS011;34005;48.844;10.098;2024-02-26T04:27:32;5.75;;;4.13;;
48215;SDS011;34005;48.844;10.098;2024-02-26T04:30:00;9.23;;;4.40;;
48215;SDS011;34005;48.844;10.098;2024-02-26T04:32:28;5.07;;;3.95;;
48215;SDS011;34005;48.844;10.098;2024-02-26T04:34:56;4.75;;;4.13;;
48215;SDS011;34005;48.844;10.098;2024-02-26T04:37:24;5.47;;;4.07;;
48215;SDS011;34005;48.844;10.098;2024-02-26T04:39:58;6.60;;;4.75;;
48215;SDS011;34005;48.844;10.098;2024-02-26T04:42:26;6.05;;;4.20;;
48215;SDS011;34005;48.844;10.098;2024-02-26T04:44:54;6.35;;;4.03;;
48215;SDS011;34005;48.844;10.098;2024-02-26T04:47:22;7.57;;;4.45;;
48215;SDS011;34005;48.844;10.098;2024-02-26T04:49:50;5.40;;;4.07;;
48215;SDS011;34005;48.844;10.098;2024-02-26T04:52:18;5.93;;;4.07;;
48215;SDS011;34005;48.844;10.098;2024-02-26T04:54:46;8.73;;;5.15;;
48215;SDS011;34005;48.844;10.098;2024-02-26T04:57:15;6.00;;;4.53;;
48215;SDS011;34005;48.844;10.098;2024-02-26T04:59:44;8.48;;;5.47;;
48215;SDS011;34005;48.844;10.098;2024-02-26T05:02:13;9.10;;;5.65;;
48215;SDS011;34005;48.844;10.098;2024-02-26T05:04:41;10.55;;;6.32;;
48215;SDS011;34005;48.844;10.098;2024-02-26T05:07:08;9.70;;;5.70;;
48215;SDS011;34005;48.844;10.098;2024-02-26T05:09:36;9.98;;;5.35;;
48215;SDS011;34005;48.844;10.098;2024-02-26T05:12:04;8.15;;;5.30;;
48215;SDS011;34005;48.844;10.098;2024-02-26T05:14:33;6.07;;;4.47;;
48215;SDS011;34005;48.844;10.098;2024-02-26T05:17:01;8.32;;;5.95;;
48215;SDS011;34005;48.844;10.098;2024-02-26T05:19:28;5.70;;;4.22;;
48215;SDS011;34005;48.844;10.098;2024-02-26T05:21:56;8.10;;;5.25;;
48215;SDS011;34005;48.844;10.098;2024-02-26T05:24:24;7.55;;;4.57;;
48215;SDS011;34005;48.844;10.098;2024-02-26T05:26:51;7.28;;;5.38;;
48215;SDS011;34005;48.844;10.098;2024-02-26T05:29:20;10.20;;;6.28;;
48215;SDS011;34005;48.844;10.098;2024-02-26T05:31:49;10.43;;;5.82;;
48215;SDS011;34005;48.844;10.098;2024-02-26T05:34:17;10.43;;;6.60;;
48215;SDS011;34005;48.844;10.098;2024-02-26T05:36:44;8.68;;;6.22;;
48215;SDS011;34005;48.844;10.098;2024-02-26T05:39:12;9.60;;;5.95;;
48215;SDS011;34005;48.844;10.098;2024-02-26T05:41:45;6.53;;;4.30;;
48215;SDS011;34005;48.844;10.098;2024-02-26T05:44:12;6.90;;;4.55;;
48215;SDS011;34005;48.844;10.098;2024-02-26T05:46:41;5.28;;;4.47;;
48215;SDS011;34005;48.844;10.098;2024-02-26T05:49:10;6.38;;;4.40;;
48215;SDS011;34005;48.844;10.098;2024-02-26T05:51:38;8.07;;;4.80;;
48215;SDS011;34005;48.844;10.098;2024-02-26T05:54:05;7.75;;;4.78;;
48215;SDS011;34005;48.844;10.098;2024-02-26T05:56:34;8.38;;;4.57;;
48215;SDS011;34005;48.844;10.098;2024-02-26T05:59:02;5.38;;;4.60;;
48215;SDS011;34005;48.844;10.098;2024-02-26T06:01:30;6.03;;;4.80;;
48215;SDS011;34005;48.844;10.098;2024-02-26T06:03:57;6.97;;;4.90;;
48215;SDS011;34005;48.844;10.098;2024-02-26T06:06:27;7.70;;;5.10;;
48215;SDS011;34005;48.844;10.098;2024-02-26T06:08:55;8.82;;;5.63;;
48215;SDS011;34005;48.844;10.098;2024-02-26T06:11:22;7.97;;;5.25;;
48215;SDS011;34005;48.844;10.098;2024-02-26T06:13:50;8.65;;;5.28;;
48215;SDS011;34005;48.844;10.098;2024-02-26T06:16:17;9.35;;;5.63;;
48215;SDS011;34005;48.844;10.098;2024-02-26T06:18:45;8.00;;;5.75;;
48215;SDS011;34005;48.844;10.098;2024-02-26T06:21:13;9.20;;;5.72;;
48215;SDS011;34005;48.844;10.098;2024-02-26T06:23:42;10.38;;;6.35;;
48215;SDS011;34005;48.844;10.098;2024-02-26T06:26:09;9.45;;;6.53;;
48215;SDS011;34005;48.844;10.098;2024-02-26T06:28:37;10.50;;;7.00;;
48215;SDS011;34005;48.844;10.098;2024-02-26T06:31:07;14.43;;;7.53;;
48215;SDS011;34005;48.844;10.098;2024-02-26T06:33:34;11.50;;;7.10;;
48215;SDS011;34005;48.844;10.098;2024-02-26T06:36:02;12.18;;;7.30;;
48215;SDS011;34005;48.844;10.098;2024-02-26T06:38:31;10.25;;;7.45;;
48215;SDS011;34005;48.844;10.098;2024-02-26T06:40:59;12.55;;;8.23;;
48215;SDS011;34005;48.844;10.098;2024-02-26T06:43:29;11.35;;;7.63;;
48215;SDS011;34005;48.844;10.098;2024-02-26T06:45:57;9.93;;;6.22;;
48215;SDS011;34005;48.844;10.098;2024-02-26T06:48:24;12.27;;;7.25;;
48215;SDS011;34005;48.844;10.098;2024-02-26T06:50:52;9.65;;;6.20;;
48215;SDS011;34005;48.844;10.098;2024-02-26T06:53:20;9.68;;;7.10;;
48215;SDS011;34005;48.844;10.098;2024-02-26T06:55:47;12.13;;;8.50;;
48215;SDS011;34005;48.844;10.098;2024-02-26T06:58:17;14.93;;;8.73;;
48215;SDS011;34005;48.844;10.098;2024-02-26T07:00:45;10.88;;;8.02;;
48215;SDS011;34005;48.844;10.098;2024-02-26T07:03:13;10.73;;;8.23;;
48215;SDS011;34005;48.844;10.098;2024-02-26T07:05:41;10.65;;;6.95;;
48215;SDS011;34005;48.844;10.098;2024-02-26T07:08:11;11.52;;;7.28;;
48215;SDS011;34005;48.844;10.098;2024-02-26T07:10:39;10.35;;;6.90;;
48215;SDS011;34005;48.844;10.098;2024-02-26T07:13:06;9.95;;;6.85;;
48215;SDS011;34005;48.844;10.098;2024-02-26T07:15:35;10.45;;;7.43;;
48215;SDS011;34005;48.844;10.098;2024-02-26T07:18:03;10.00;;;6.20;;
48215;SDS011;34005;48.844;10.098;2024-02-26T07:20:31;10.15;;;6.53;;
48215;SDS011;34005;48.844;10.098;2024-02-26T07:22:59;10.15;;;7.35;;
48215;SDS011;34005;48.844;10.098;2024-02-26T07:25:26;9.93;;;6.85;;
48215;SDS011;34005;48.844;10.098;2024-02-26T07:27:54;12.68;;;8.05;;
48215;SDS011;34005;48.844;10.098;2024-02-26T07:30:22;11.60;;;7.75;;
48215;SDS011;34005;48.844;10.098;2024-02-26T07:32:52;10.30;;;7.35;;
48215;SDS011;34005;48.844;10.098;2024-02-26T07:35:19;11.25;;;7.43;;
48215;SDS011;34005;48.844;10.098;2024-02-26T07:37:47;12.15;;;8.02;;
48215;SDS011;34005;48.844;10.098;2024-02-26T07:40:15;14.32;;;9.65;;
48215;SDS011;34005;48.844;10.098;2024-02-26T07:42:43;16.00;;;9.57;;
48215;SDS011;34005;48.844;10.098;2024-02-26T07:45:10;18.35;;;11.00;;
48215;SDS011;34005;48.844;10.098;2024-02-26T07:47:38;12.13;;;8.32;;
48215;SDS011;34005;48.844;10.098;2024-02-26T07:50:09;10.32;;;6.80;;
48215;SDS011;34005;48.844;10.098;2024-02-26T07:52:38;9.88;;;7.53;;
48215;SDS011;34005;48.844;10.098;2024-02-26T07:55:06;12.55;;;7.40;;
48215;SDS011;34005;48.844;10.098;2024-02-26T07:57:34;10.03;;;6.43;;
48215;SDS011;34005;48.844;10.098;2024-02-26T08:00:02;9.55;;;7.30;;
48215;SDS011;34005;48.844;10.098;2024-02-26T08:02:33;10.88;;;7.70;;
48215;SDS011;34005;48.844;10.098;2024-02-26T08:05:01;11.95;;;6.82;;
48215;SDS011;34005;48.844;10.098;2024-02-26T08:07:30;11.63;;;7.68;;
48215;SDS011;34005;48.844;10.098;2024-02-26T08:09:57;11.90;;;7.68;;
48215;SDS011;34005;48.844;10.098;2024-02-26T08:12:25;12.75;;;7.75;;
48215;SDS011;34005;48.844;10.098;2024-02-26T08:14:52;15.57;;;8.50;;
48215;SDS011;34005;48.844;10.098;2024-02-26T08:17:20;13.18;;;8.45;;
48215;SDS011;34005;48.844;10.098;2024-02-26T08:19:48;11.18;;;7.80;;
48215;SDS011;34005;48.844;10.098;2024-02-26T08:22:15;12.40;;;8.25;;
48215;SDS011;34005;48.844;10.098;2024-02-26T08:24:45;13.93;;;9.07;;
48215;SDS011;34005;48.844;10.098;2024-02-26T08:27:12;9.90;;;6.20;;
48215;SDS011;34005;48.844;10.098;2024-02-26T08:29:40;13.73;;;7.93;;
48215;SDS011;34005;48.844;10.098;2024-02-26T08:32:08;13.18;;;7.68;;
48215;SDS011;34005;48.844;10.098;2024-02-26T08:34:35;10.63;;;6.80;;
48215;SDS011;34005;48.844;10.098;2024-02-26T08:37:03;11.35;;;6.50;;
48215;SDS011;34005;48.844;10.098;2024-02-26T08:39:31;11.07;;;6.70;;
48215;SDS011;34005;48.844;10.098;2024-02-26T08:42:00;11.30;;;7.45;;
48215;SDS011;34005;48.844;10.098;2024-02-26T08:44:27;11.05;;;6.95;;
48215;SDS011;34005;48.844;10.098;2024-02-26T08:46:55;10.73;;;7.25;;
48215;SDS011;34005;48.844;10.098;2024-02-26T08:49:23;10.13;;;6.70;;
48215;SDS011;34005;48.844;10.098;2024-02-26T08:51:50;11.13;;;7.90;;
48215;SDS011;34005;48.844;10.098;2024-02-26T08:54:18;10.65;;;7.90;;
48215;SDS011;34005;48.844;10.098;2024-02-26T08:56:45;12.25;;;7.93;;
48215;SDS011;34005;48.844;10.098;2024-02-26T08:59:14;10.25;;;7.60;;
48215;SDS011;34005;48.844;10.098;2024-02-26T09:01:42;10.90;;;8.02;;
48215;SDS011;34005;48.844;10.098;2024-02-26T09:04:10;12.95;;;8.13;;
48215;SDS011;34005;48.844;10.098;2024-02-26T09:06:37;12.50;;;8.57;;
48215;SDS011;34005;48.844;10.098;2024-02-26T09:09:05;13.85;;;8.32;;
48215;SDS011;34005;48.844;10.098;2024-02-26T09:11:33;14.30;;;9.30;;
48215;SDS011;34005;48.844;10.098;2024-02-26T09:14:00;13.57;;;9.30;;
48215;SDS011;34005;48.844;10.098;2024-02-26T09:16:29;12.88;;;7.60;;
48215;SDS011;34005;48.844;10.098;2024-02-26T09:18:57;11.10;;;7.05;;
48215;SDS011;34005;48.844;10.098;2024-02-26T09:21:24;10.77;;;6.90;;
48215;SDS011;34005;48.844;10.098;2024-02-26T09:23:52;11.50;;;6.55;;
48215;SDS011;34005;48.844;10.098;2024-02-26T09:26:20;9.15;;;6.00;;
48215;SDS011;34005;48.844;10.098;2024-02-26T09:28:48;10.32;;;6.72;;
48215;SDS011;34005;48.844;10.098;2024-02-26T09:31:17;9.43;;;6.63;;
48215;SDS011;34005;48.844;10.098;2024-02-26T09:33:46;8.38;;;6.25;;
48215;SDS011;34005;48.844;10.098;2024-02-26T09:36:14;10.77;;;6.93;;
48215;SDS011;34005;48.844;10.098;2024-02-26T09:38:41;12.93;;;7.30;;
48215;SDS011;34005;48.844;10.098;2024-02-26T09:41:21;9.63;;;6.53;;
48215;SDS011;34005;48.844;10.098;2024-02-26T09:43:49;8.35;;;5.93;;
48215;SDS011;34005;48.844;10.098;2024-02-26T09:46:22;10.23;;;6.45;;
48215;SDS011;34005;48.844;10.098;2024-02-26T09:48:51;11.73;;;7.32;;
48215;SDS011;34005;48.844;10.098;2024-02-26T09:51:20;9.15;;;7.03;;
48215;SDS011;34005;48.844;10.098;2024-02-26T09:53:51;11.75;;;7.18;;
48215;SDS011;34005;48.844;10.098;2024-02-26T09:56:20;9.10;;;5.95;;
48215;SDS011;34005;48.844;10.098;2024-02-26T09:58:48;11.15;;;6.53;;
48215;SDS011;34005;48.844;10.098;2024-02-26T10:01:20;10.07;;;5.93;;
48215;SDS011;34005;48.844;10.098;2024-02-26T10:03:54;9.60;;;6.57;;
48215;SDS011;34005;48.844;10.098;2024-02-26T10:06:24;8.57;;;6.07;;
48215;SDS011;34005;48.844;10.098;2024-02-26T10:08:54;10.38;;;7.03;;
48215;SDS011;34005;48.844;10.098;2024-02-26T10:11:21;11.63;;;7.28;;
48215;SDS011;34005;48.844;10.098;2024-02-26T10:13:50;7.88;;;5.85;;
48215;SDS011;34005;48.844;10.098;2024-02-26T10:16:18;11.23;;;7.07;;
48215;SDS011;34005;48.844;10.098;2024-02-26T10:18:46;13.73;;;7.00;;
48215;SDS011;34005;48.844;10.098;2024-02-26T10:21:20;12.75;;;6.13;;
48215;SDS011;34005;48.844;10.098;2024-02-26T10:23:48;10.90;;;6.47;;
48215;SDS011;34005;48.844;10.098;2024-02-26T10:26:16;11.88;;;5.88;;
48215;SDS011;34005;48.844;10.098;2024-02-26T10:28:45;11.10;;;6.25;;
48215;SDS011;34005;48.844;10.098;2024-02-26T10:31:17;9.35;;;6.32;;
48215;SDS011;34005;48.844;10.098;2024-02-26T10:33:46;10.05;;;6.38;;
48215;SDS011;34005;48.844;10.098;2024-02-26T10:36:13;7.95;;;6.15;;
48215;SDS011;34005;48.844;10.098;2024-02-26T10:38:43;11.18;;;6.47;;
48215;SDS011;34005;48.844;10.098;2024-02-26T10:41:12;8.15;;;6.10;;
48215;SDS011;34005;48.844;10.098;2024-02-26T10:43:41;8.05;;;5.95;;
48215;SDS011;34005;48.844;10.098;2024-02-26T10:46:09;9.38;;;5.80;;
48215;SDS011;34005;48.844;10.098;2024-02-26T10:48:36;6.82;;;5.50;;
48215;SDS011;34005;48.844;10.098;2024-02-26T10:51:04;6.50;;;5.20;;
48215;SDS011;34005;48.844;10.098;2024-02-26T10:53:32;6.18;;;5.03;;
48215;SDS011;34005;48.844;10.098;2024-02-26T10:56:04;8.02;;;5.85;;
48215;SDS011;34005;48.844;10.098;2024-02-26T10:58:32;5.72;;;4.40;;
48215;SDS011;34005;48.844;10.098;2024-02-26T11:01:00;7.10;;;4.65;;
48215;SDS011;34005;48.844;10.098;2024-02-26T11:03:28;6.78;;;5.22;;
48215;SDS011;34005;48.844;10.098;2024-02-26T11:06:01;6.60;;;4.75;;
48215;SDS011;34005;48.844;10.098;2024-02-26T11:08:30;8.80;;;5.85;;
48215;SDS011;34005;48.844;10.098;2024-02-26T11:10:59;8.10;;;5.28;;
48215;SDS011;34005;48.844;10.098;2024-02-26T11:13:29;7.82;;;5.72;;
48215;SDS011;34005;48.844;10.098;2024-02-26T11:16:02;5.95;;;5.20;;
48215;SDS011;34005;48.844;10.098;2024-02-26T11:18:30;7.53;;;5.13;;
48215;SDS011;34005;48.844;10.098;2024-02-26T11:20:59;6.65;;;4.95;;
48215;SDS011;34005;48.844;10.098;2024-02-26T11:23:27;8.98;;;5.70;;
48215;SDS011;34005;48.844;10.098;2024-02-26T11:25:55;7.05;;;5.60;;
48215;SDS011;34005;48.844;10.098;2024-02-26T11:28:25;8.15;;;5.53;;
48215;SDS011;34005;48.844;10.098;2024-02-26T11:30:58;6.65;;;5.65;;
48215;SDS011;34005;48.844;10.098;2024-02-26T11:33:28;7.82;;;5.35;;
48215;SDS011;34005;48.844;10.098;2024-02-26T11:35:55;7.57;;;4.70;;
48215;SDS011;34005;48.844;10.098;2024-02-26T11:38:25;9.80;;;6.13;;
48215;SDS011;34005;48.844;10.098;2024-02-26T11:40:54;8.18;;;5.25;;
48215;SDS011;34005;48.844;10.098;2024-02-26T11:43:23;7.25;;;5.28;;
48215;SDS011;34005;48.844;10.098;2024-02-26T11:45:52;6.43;;;5.22;;
48215;SDS011;34005;48.844;10.098;2024-02-26T11:48:23;6.57;;;5.57;;
48215;SDS011;34005;48.844;10.098;2024-02-26T11:50:52;8.10;;;5.28;;
48215;SDS011;34005;48.844;10.098;2024-02-26T11:53:22;10.25;;;5.53;;
48215;SDS011;34005;48.844;10.098;2024-02-26T11:56:11;6.35;;;5.03;;
48215;SDS011;34005;48.844;10.098;2024-02-26T11:58:40;4.75;;;4.35;;
48215;SDS011;34005;48.844;10.098;2024-02-26T12:04:05;7.50;;;5.00;;
48215;SDS011;34005;48.844;10.098;2024-02-26T12:09:30;6.65;;;4.95;;
48215;SDS011;34005;48.844;10.098;2024-02-26T12:11:59;7.25;;;4.93;;
48215;SDS011;34005;48.844;10.098;2024-02-26T12:14:28;6.18;;;4.75;;
48215;SDS011;34005;48.844;10.098;2024-02-26T12:16:57;7.53;;;5.03;;
48215;SDS011;34005;48.844;10.098;2024-02-26T12:19:25;7.78;;;5.63;;
48215;SDS011;34005;48.844;10.098;2024-02-26T12:21:54;7.85;;;5.55;;
48215;SDS011;34005;48.844;10.098;2024-02-26T12:24:22;7.32;;;4.65;;
48215;SDS011;34005;48.844;10.098;2024-02-26T12:26:50;17.55;;;4.75;;
48215;SDS011;34005;48.844;10.098;2024-02-26T12:29:17;5.25;;;4.40;;
48215;SDS011;34005;48.844;10.098;2024-02-26T12:31:45;4.97;;;4.03;;
48215;SDS011;34005;48.844;10.098;2024-02-26T12:34:14;5.93;;;4.55;;
48215;SDS011;34005;48.844;10.098;2024-02-26T12:36:43;5.22;;;4.18;;
48215;SDS011;34005;48.844;10.098;2024-02-26T12:39:10;5.15;;;3.95;;
48215;SDS011;34005;48.844;10.098;2024-02-26T12:41:38;6.15;;;4.03;;
48215;SDS011;34005;48.844;10.098;2024-02-26T12:44:07;4.97;;;3.83;;
48215;SDS011;34005;48.844;10.098;2024-02-26T12:46:35;5.80;;;3.45;;
48215;SDS011;34005;48.844;10.098;2024-02-26T12:49:02;4.63;;;3.60;;
48215;SDS011;34005;48.844;10.098;2024-02-26T12:51:32;5.32;;;3.70;;
48215;SDS011;34005;48.844;10.098;2024-02-26T12:54:00;5.00;;;3.80;;
48215;SDS011;34005;48.844;10.098;2024-02-26T12:56:28;7.80;;;4.00;;
48215;SDS011;34005;48.844;10.098;2024-02-26T12:58:57;6.55;;;3.40;;
48215;SDS011;34005;48.844;10.098;2024-02-26T13:01:26;2.60;;;2.40;;
48215;SDS011;34005;48.844;10.098;2024-02-26T13:03:55;3.20;;;2.33;;
48215;SDS011;34005;48.844;10.098;2024-02-26T13:06:23;3.30;;;2.35;;
48215;SDS011;34005;48.844;10.098;2024-02-26T13:08:56;3.67;;;2.13;;
48215;SDS011;34005;48.844;10.098;2024-02-26T13:11:25;2.67;;;1.88;;
48215;SDS011;34005;48.844;10.098;2024-02-26T13:13:55;2.53;;;1.40;;
48215;SDS011;34005;48.844;10.098;2024-02-26T13:16:23;2.63;;;1.35;;
48215;SDS011;34005;48.844;10.098;2024-02-26T13:18:52;2.03;;;1.38;;
48215;SDS011;34005;48.844;10.098;2024-02-26T13:21:20;5.10;;;1.63;;
48215;SDS011;34005;48.844;10.098;2024-02-26T13:23:48;2.15;;;1.52;;
48215;SDS011;34005;48.844;10.098;2024-02-26T13:26:22;2.92;;;1.58;;
48215;SDS011;34005;48.844;10.098;2024-02-26T13:29:00;4.28;;;1.30;;
48215;SDS011;34005;48.844;10.098;2024-02-26T13:31:29;2.55;;;1.33;;
48215;SDS011;34005;48.844;10.098;2024-02-26T13:33:57;2.20;;;2.00;;
48215;SDS011;34005;48.844;10.098;2024-02-26T13:36:25;1.88;;;1.77;;
48215;SDS011;34005;48.844;10.098;2024-02-26T13:38:53;2.78;;;1.58;;
48215;SDS011;34005;48.844;10.098;2024-02-26T13:41:23;2.10;;;1.67;;
48215;SDS011;34005;48.844;10.098;2024-02-26T13:43:51;2.03;;;1.75;;
48215;SDS011;34005;48.844;10.098;2024-02-26T13:46:18;3.33;;;1.63;;
48215;SDS011;34005;48.844;10.098;2024-02-26T13:48:46;3.05;;;1.73;;
48215;SDS011;34005;48.844;10.098;2024-02-26T13:51:14;2.38;;;1.30;;
48215;SDS011;34005;48.844;10.098;2024-02-26T13:53:43;4.95;;;2.25;;
48215;SDS011;34005;48.844;10.098;2024-02-26T13:56:11;1.73;;;1.63;;
48215;SDS011;34005;48.844;10.098;2024-02-26T13:58:40;3.67;;;2.13;;
48215;SDS011;34005;48.844;10.098;2024-02-26T14:01:08;1.55;;;1.45;;
48215;SDS011;34005;48.844;10.098;2024-02-26T14:03:36;2.50;;;1.70;;
48215;SDS011;34005;48.844;10.098;2024-02-26T14:06:04;2.47;;;1.80;;
48215;SDS011;34005;48.844;10.098;2024-02-26T14:08:32;2.60;;;1.25;;
48215;SDS011;34005;48.844;10.098;2024-02-26T14:10:59;2.22;;;1.73;;
48215;SDS011;34005;48.844;10.098;2024-02-26T14:13:28;2.08;;;1.88;;
48215;SDS011;34005;48.844;10.098;2024-02-26T14:15:57;2.72;;;1.90;;
48215;SDS011;34005;48.844;10.098;2024-02-26T14:18:24;1.85;;;1.38;;
48215;SDS011;34005;48.844;10.098;2024-02-26T14:20:53;3.40;;;1.90;;
48215;SDS011;34005;48.844;10.098;2024-02-26T14:23:21;3.53;;;1.73;;
48215;SDS011;34005;48.844;10.098;2024-02-26T14:25:48;2.15;;;1.60;;
48215;SDS011;34005;48.844;10.098;2024-02-26T14:28:16;2.05;;;1.55;;
48215;SDS011;34005;48.844;10.098;2024-02-26T14:30:50;2.25;;;1.38;;
48215;SDS011;34005;48.844;10.098;2024-02-26T14:33:19;1.70;;;1.60;;
48215;SDS011;34005;48.844;10.098;2024-02-26T14:35:47;2.33;;;1.73;;
48215;SDS011;34005;48.844;10.098;2024-02-26T14:38:15;2.20;;;1.88;;
48215;SDS011;34005;48.844;10.098;2024-02-26T14:40:42;2.60;;;2.20;;
48215;SDS011;34005;48.844;10.098;2024-02-26T14:43:10;4.38;;;2.03;;